Svitlovods'K, Ukraine
Current Conditions -  °F | °C
As of 2:30 PM on Monday 20 Oct 2014 (Local Time) from UKDR Reporting Station
Broken Clouds Broken Clouds  
Wind Chill: 59°   Ceiling: 20000
Heat Index: 59°   Visibility: 6mi
Dew Point: 43°   Wind: 25mph
Humidity: 55%   Direction: 240°WSW
Pressure: 29.88"   Gusts: NA
Location:  49.05°N, 33.25°E
Report Text: UKDR 201130Z 24011MPS 9999 FEW033 BKN200 15/06 Q1012 1809//70 NOSIG
Loading
Personal Weather Stations






























Interactive Weather Map
Tropical Storm Tracking
New forecast layout! Learn more

10-Day Weather Forecast

Advertisements
Track Severe Weather on mobile